Time;durP1;ratioP1;P1;durP2;ratioP2;P2;SDS_P1;SDS_P2;PMS_P1;PMS_P2;Temp;Humidity;BMP_temperature;BMP_pressure;BME280_temperature;BME280_humidity;BME280_pressure;Samples;Min_cycle;Max_cycle;Signal;HPM_P1;HPM_P2
2023/07/07 00:00:29;;;;;;;2.60;2.40;;;;;;;;;;5071239;28;20530;-56
2023/07/07 00:02:56;;;;;;;3.50;2.87;;;;;;;;;;5069773;28;20530;-56
2023/07/07 00:05:22;;;;;;;4.50;2.77;;;;;;;;;;5070627;28;20213;-56
2023/07/07 00:07:51;;;;;;;2.83;2.57;;;;;;;;;;5071170;28;20273;-56
2023/07/07 00:10:18;;;;;;;2.87;2.67;;;;;;;;;;5070903;28;20217;-57
2023/07/07 00:12:44;;;;;;;4.30;2.70;;;;;;;;;;5071287;28;20161;-56
2023/07/07 00:15:10;;;;;;;3.30;3.00;;;;;;;;;;5071027;28;20616;-56
2023/07/07 00:17:36;;;;;;;4.40;2.20;;;;;;;;;;5070337;28;20267;-57
2023/07/07 00:20:07;;;;;;;3.20;2.77;;;;;;;;;;5070529;28;20262;-56
2023/07/07 00:22:34;;;;;;;3.03;2.57;;;;;;;;;;5071148;28;20176;-56
2023/07/07 00:25:00;;;;;;;2.67;2.47;;;;;;;;;;5070983;28;20517;-56
2023/07/07 00:27:26;;;;;;;3.20;2.90;;;;;;;;;;5071029;28;20306;-56
2023/07/07 00:29:53;;;;;;;6.30;3.00;;;;;;;;;;5070619;28;20549;-56
2023/07/07 00:32:19;;;;;;;2.40;2.20;;;;;;;;;;5070452;28;20164;-56
2023/07/07 00:34:45;;;;;;;4.27;2.70;;;;;;;;;;5070379;28;20527;-56
2023/07/07 00:37:11;;;;;;;3.17;2.87;;;;;;;;;;5071173;28;20169;-57
2023/07/07 00:39:37;;;;;;;4.70;2.73;;;;;;;;;;5070687;28;20196;-56
2023/07/07 00:42:03;;;;;;;2.73;2.53;;;;;;;;;;5070814;28;20172;-56
2023/07/07 00:44:31;;;;;;;3.47;2.50;;;;;;;;;;5070638;28;20165;-56
2023/07/07 00:46:57;;;;;;;3.07;2.77;;;;;;;;;;5069674;28;20176;-57
2023/07/07 00:49:23;;;;;;;2.93;2.47;;;;;;;;;;5070434;28;20521;-56
2023/07/07 00:52:01;;;;;;;4.37;3.20;;;;;;;;;;5070503;28;20171;-56
2023/07/07 00:54:29;;;;;;;4.37;2.60;;;;;;;;;;5074234;28;20476;-56
2023/07/07 00:56:55;;;;;;;2.63;2.43;;;;;;;;;;5074270;28;20212;-56
2023/07/07 00:59:24;;;;;;;4.97;2.97;;;;;;;;;;5074416;28;20184;-57
2023/07/07 01:01:53;;;;;;;2.83;2.50;;;;;;;;;;5074137;28;20179;-56
2023/07/07 01:04:19;;;;;;;3.00;2.70;;;;;;;;;;5068556;28;20220;-56
2023/07/07 01:06:49;;;;;;;4.00;2.70;;;;;;;;;;5054752;28;20199;-56
2023/07/07 01:09:15;;;;;;;3.67;3.37;;;;;;;;;;5055514;28;20268;-56
2023/07/07 01:11:42;;;;;;;2.77;2.53;;;;;;;;;;5074484;28;20191;-56
2023/07/07 01:14:13;;;;;;;3.00;2.63;;;;;;;;;;5074303;28;20161;-56
2023/07/07 01:16:51;;;;;;;4.03;2.90;;;;;;;;;;5074194;28;20234;-56
2023/07/07 01:19:32;;;;;;;3.07;2.50;;;;;;;;;;5074094;28;20663;-56
2023/07/07 01:22:17;;;;;;;2.60;2.40;;;;;;;;;;5074136;28;20165;-56
2023/07/07 01:24:45;;;;;;;2.53;2.33;;;;;;;;;;5074027;28;20526;-56
2023/07/07 01:27:12;;;;;;;3.00;2.30;;;;;;;;;;5074044;28;20219;-57
2023/07/07 01:29:57;;;;;;;2.90;2.53;;;;;;;;;;5074109;28;20178;-57
2023/07/07 01:32:25;;;;;;;2.43;2.23;;;;;;;;;;5073391;28;20166;-57
2023/07/07 01:34:54;;;;;;;2.93;2.57;;;;;;;;;;5073479;28;20618;-56
2023/07/07 01:37:20;;;;;;;2.67;2.47;;;;;;;;;;5073717;28;20206;-56
2023/07/07 01:39:46;;;;;;;2.90;2.70;;;;;;;;;;5073653;28;20194;-57
2023/07/07 01:42:17;;;;;;;2.80;2.60;;;;;;;;;;5073539;28;20247;-57
2023/07/07 01:44:51;;;;;;;2.63;2.43;;;;;;;;;;5073463;28;20208;-57
2023/07/07 01:47:38;;;;;;;3.23;2.40;;;;;;;;;;5072745;28;20169;-56
2023/07/07 01:50:09;;;;;;;3.40;3.10;;;;;;;;;;5072905;28;20659;-56
2023/07/07 01:52:55;;;;;;;2.90;2.50;;;;;;;;;;5053317;28;20272;-56
2023/07/07 01:55:25;;;;;;;3.00;2.70;;;;;;;;;;5053325;28;20204;-56
2023/07/07 01:57:53;;;;;;;3.37;2.80;;;;;;;;;;5052699;28;20231;-55
2023/07/07 02:00:19;;;;;;;2.50;2.23;;;;;;;;;;5053144;28;20528;-56
2023/07/07 02:02:46;;;;;;;2.93;2.50;;;;;;;;;;5052636;28;20175;-55
2023/07/07 02:05:13;;;;;;;2.70;2.40;;;;;;;;;;5064461;28;20286;-55
2023/07/07 02:07:39;;;;;;;3.17;2.50;;;;;;;;;;5073542;28;20169;-56
2023/07/07 02:10:05;;;;;;;3.40;2.87;;;;;;;;;;5073227;28;20162;-56
2023/07/07 02:12:31;;;;;;;4.30;2.80;;;;;;;;;;5073103;28;20498;-56
2023/07/07 02:14:57;;;;;;;3.20;2.63;;;;;;;;;;5073120;28;20188;-56
2023/07/07 02:17:24;;;;;;;2.70;2.40;;;;;;;;;;5072182;28;20157;-56
2023/07/07 02:19:50;;;;;;;2.60;2.40;;;;;;;;;;5072627;28;20201;-55
2023/07/07 02:22:16;;;;;;;2.73;2.50;;;;;;;;;;5054970;28;20179;-55
2023/07/07 02:24:43;;;;;;;4.07;2.50;;;;;;;;;;5072529;28;20157;-55
2023/07/07 02:27:10;;;;;;;2.93;2.60;;;;;;;;;;5073070;28;20181;-56
2023/07/07 02:29:37;;;;;;;2.97;2.63;;;;;;;;;;5073058;28;20176;-56
2023/07/07 02:32:03;;;;;;;3.00;2.70;;;;;;;;;;5072209;28;20173;-55
2023/07/07 02:34:29;;;;;;;2.47;2.30;;;;;;;;;;5072396;28;20251;-56
2023/07/07 02:36:55;;;;;;;2.90;2.50;;;;;;;;;;5072435;28;20164;-56
2023/07/07 02:39:21;;;;;;;5.10;2.87;;;;;;;;;;5072510;28;20353;-55
2023/07/07 02:41:47;;;;;;;4.40;2.90;;;;;;;;;;5072911;28;20272;-55
2023/07/07 02:44:14;;;;;;;3.87;2.87;;;;;;;;;;5072872;28;20161;-56
2023/07/07 02:46:40;;;;;;;3.27;2.80;;;;;;;;;;5072348;28;20804;-56
2023/07/07 02:49:06;;;;;;;4.63;2.83;;;;;;;;;;5072071;28;20255;-56
2023/07/07 02:51:32;;;;;;;5.37;2.90;;;;;;;;;;5072326;28;20262;-56
2023/07/07 02:53:58;;;;;;;4.23;2.90;;;;;;;;;;5072494;28;20211;-56
2023/07/07 02:56:24;;;;;;;3.37;3.07;;;;;;;;;;5072100;28;20335;-56
2023/07/07 02:58:50;;;;;;;4.33;3.03;;;;;;;;;;5072578;28;20200;-56
2023/07/07 03:01:17;;;;;;;3.63;3.43;;;;;;;;;;5072230;28;20172;-56
2023/07/07 03:03:45;;;;;;;3.40;3.03;;;;;;;;;;5070536;28;20642;-55
2023/07/07 03:06:15;;;;;;;3.60;3.07;;;;;;;;;;5052140;28;20166;-56
2023/07/07 03:08:42;;;;;;;3.23;2.60;;;;;;;;;;5052051;28;20181;-57
2023/07/07 03:11:09;;;;;;;3.33;2.80;;;;;;;;;;5052076;28;20178;-56
2023/07/07 03:13:36;;;;;;;3.73;3.00;;;;;;;;;;5051910;28;20189;-56
2023/07/07 03:16:08;;;;;;;4.37;2.80;;;;;;;;;;5052157;28;20260;-56
2023/07/07 03:18:35;;;;;;;2.97;2.60;;;;;;;;;;5050783;28;20645;-57
2023/07/07 03:21:01;;;;;;;7.03;3.57;;;;;;;;;;5051719;28;20290;-56
2023/07/07 03:23:27;;;;;;;5.23;3.30;;;;;;;;;;5049334;28;20633;-57
2023/07/07 03:25:54;;;;;;;3.37;3.07;;;;;;;;;;5051717;28;20603;-57
2023/07/07 03:28:21;;;;;;;5.13;3.73;;;;;;;;;;5051777;28;20165;-56
2023/07/07 03:30:48;;;;;;;3.27;2.97;;;;;;;;;;5052325;28;20474;-56
2023/07/07 03:33:14;;;;;;;4.37;3.97;;;;;;;;;;5050730;28;20220;-57
2023/07/07 03:35:41;;;;;;;3.93;3.30;;;;;;;;;;5052123;28;20660;-56
2023/07/07 03:38:07;;;;;;;3.20;2.90;;;;;;;;;;5051819;28;20512;-56
2023/07/07 03:40:34;;;;;;;3.50;2.70;;;;;;;;;;5051910;28;20165;-57
2023/07/07 03:43:00;;;;;;;3.90;2.80;;;;;;;;;;5051579;28;20672;-57
2023/07/07 03:45:27;;;;;;;3.67;3.37;;;;;;;;;;5052076;28;20639;-56
2023/07/07 03:47:53;;;;;;;4.00;3.00;;;;;;;;;;5050656;28;20250;-56
2023/07/07 03:50:19;;;;;;;3.10;2.80;;;;;;;;;;5052333;28;20169;-56
2023/07/07 03:52:46;;;;;;;2.30;2.10;;;;;;;;;;5051924;28;20208;-57
2023/07/07 03:55:12;;;;;;;3.60;3.10;;;;;;;;;;5052091;28;20264;-56
2023/07/07 03:57:38;;;;;;;3.53;2.77;;;;;;;;;;5049906;28;20233;-56
2023/07/07 04:00:05;;;;;;;3.13;2.83;;;;;;;;;;5051675;28;20226;-56
2023/07/07 04:02:31;;;;;;;3.00;2.33;;;;;;;;;;5051113;28;20581;-56
2023/07/07 04:04:58;;;;;;;4.00;2.77;;;;;;;;;;5062143;28;20254;-57
2023/07/07 04:07:25;;;;;;;4.03;3.07;;;;;;;;;;5071229;28;20250;-56
2023/07/07 04:09:52;;;;;;;3.60;3.30;;;;;;;;;;5070847;28;20169;-56
2023/07/07 04:12:19;;;;;;;3.30;3.00;;;;;;;;;;5071441;28;20184;-57
2023/07/07 04:14:45;;;;;;;3.60;3.03;;;;;;;;;;5070985;28;20204;-57
2023/07/07 04:17:11;;;;;;;3.83;2.40;;;;;;;;;;5070460;28;20553;-56
2023/07/07 04:19:38;;;;;;;3.90;3.20;;;;;;;;;;5052916;28;20287;-56
2023/07/07 04:22:04;;;;;;;3.10;2.57;;;;;;;;;;5053073;28;20175;-57
2023/07/07 04:24:30;;;;;;;5.93;2.90;;;;;;;;;;5071526;28;20604;-56
2023/07/07 04:26:57;;;;;;;2.63;2.40;;;;;;;;;;5071147;28;20168;-57
2023/07/07 04:29:27;;;;;;;4.00;3.10;;;;;;;;;;5070985;28;20169;-56
2023/07/07 04:31:54;;;;;;;2.63;2.43;;;;;;;;;;5070442;28;20618;-57
2023/07/07 04:34:20;;;;;;;3.60;3.20;;;;;;;;;;5071069;28;20168;-57
2023/07/07 04:36:46;;;;;;;5.13;2.97;;;;;;;;;;5071209;28;20176;-57
2023/07/07 04:39:12;;;;;;;2.97;2.70;;;;;;;;;;5071031;28;20597;-57
2023/07/07 04:41:38;;;;;;;3.83;2.53;;;;;;;;;;5071095;28;20184;-57
2023/07/07 04:44:04;;;;;;;2.73;2.53;;;;;;;;;;5070894;28;20164;-57
2023/07/07 04:46:32;;;;;;;2.70;2.50;;;;;;;;;;5071348;28;20859;-57
2023/07/07 04:48:59;;;;;;;2.80;2.47;;;;;;;;;;5070880;28;20622;-57
2023/07/07 04:51:25;;;;;;;3.00;2.70;;;;;;;;;;5071184;28;20226;-57
2023/07/07 04:53:52;;;;;;;8.43;3.07;;;;;;;;;;5071107;28;20173;-56
2023/07/07 04:56:20;;;;;;;3.13;2.83;;;;;;;;;;5049747;28;20250;-58
2023/07/07 04:58:48;;;;;;;4.43;3.00;;;;;;;;;;5051171;28;20207;-57
2023/07/07 05:01:17;;;;;;;7.60;3.50;;;;;;;;;;5050485;28;20170;-57
2023/07/07 05:03:44;;;;;;;4.20;2.73;;;;;;;;;;5048334;28;20550;-57
2023/07/07 05:06:11;;;;;;;2.97;2.70;;;;;;;;;;5050859;28;20235;-58
2023/07/07 05:08:39;;;;;;;5.37;3.23;;;;;;;;;;5050696;28;20230;-57
2023/07/07 05:11:06;;;;;;;3.13;2.70;;;;;;;;;;5050821;28;20228;-58
2023/07/07 05:13:33;;;;;;;3.30;3.00;;;;;;;;;;5051102;28;20175;-56
2023/07/07 05:16:00;;;;;;;3.97;2.90;;;;;;;;;;5050385;28;20420;-57
2023/07/07 05:18:27;;;;;;;4.00;2.90;;;;;;;;;;5049462;28;20222;-57
2023/07/07 05:20:53;;;;;;;4.27;3.10;;;;;;;;;;5049196;28;20618;-56
2023/07/07 05:23:19;;;;;;;4.73;3.13;;;;;;;;;;5050753;28;20667;-57
2023/07/07 05:25:46;;;;;;;4.87;2.93;;;;;;;;;;5050739;28;20161;-57
2023/07/07 05:28:12;;;;;;;3.87;3.07;;;;;;;;;;5050354;28;20169;-57
2023/07/07 05:30:39;;;;;;;3.27;2.83;;;;;;;;;;5049986;28;20169;-57
2023/07/07 05:33:05;;;;;;;4.83;2.73;;;;;;;;;;5049375;28;20188;-57
2023/07/07 05:35:31;;;;;;;2.80;2.60;;;;;;;;;;5050579;28;20604;-57
2023/07/07 05:37:57;;;;;;;2.90;2.60;;;;;;;;;;5050119;28;20770;-56
2023/07/07 05:40:24;;;;;;;2.63;2.43;;;;;;;;;;5053457;28;20208;-56
2023/07/07 05:42:50;;;;;;;6.03;3.50;;;;;;;;;;5054181;28;20633;-56
2023/07/07 05:45:17;;;;;;;3.63;3.10;;;;;;;;;;5054097;28;20170;-56
2023/07/07 05:47:44;;;;;;;2.90;2.60;;;;;;;;;;5053135;28;20153;-56
2023/07/07 05:50:10;;;;;;;3.20;2.90;;;;;;;;;;5053540;28;20461;-56
2023/07/07 05:52:36;;;;;;;4.33;3.07;;;;;;;;;;5053731;28;20662;-57
2023/07/07 05:55:03;;;;;;;3.90;3.07;;;;;;;;;;5053600;28;20166;-56
2023/07/07 05:57:30;;;;;;;2.93;2.73;;;;;;;;;;5070444;28;20248;-56
2023/07/07 05:59:56;;;;;;;2.80;2.60;;;;;;;;;;5073755;28;20564;-56
2023/07/07 06:02:22;;;;;;;4.43;3.00;;;;;;;;;;5073058;28;20165;-56
2023/07/07 06:04:48;;;;;;;3.10;2.43;;;;;;;;;;5063379;28;20201;-55
2023/07/07 06:07:14;;;;;;;4.47;2.73;;;;;;;;;;5053686;28;20651;-56
2023/07/07 06:09:40;;;;;;;4.83;3.30;;;;;;;;;;5053530;28;20165;-56
2023/07/07 06:12:07;;;;;;;3.33;3.03;;;;;;;;;;5053569;28;20169;-56
2023/07/07 06:14:33;;;;;;;3.17;2.67;;;;;;;;;;5053466;28;20519;-56
2023/07/07 06:16:59;;;;;;;3.67;2.70;;;;;;;;;;5052428;28;20173;-57
2023/07/07 06:19:25;;;;;;;3.57;3.10;;;;;;;;;;5052772;28;20205;-56
2023/07/07 06:21:51;;;;;;;5.00;3.40;;;;;;;;;;5053030;28;20247;-56
2023/07/07 06:24:18;;;;;;;3.10;2.80;;;;;;;;;;5052920;28;20170;-57
2023/07/07 06:26:44;;;;;;;3.07;2.80;;;;;;;;;;5051426;28;20172;-56
2023/07/07 06:29:10;;;;;;;2.70;2.50;;;;;;;;;;5053123;28;20169;-57
2023/07/07 06:31:36;;;;;;;3.60;3.03;;;;;;;;;;5051244;28;20456;-57
2023/07/07 06:34:03;;;;;;;3.47;3.17;;;;;;;;;;5052428;28;20181;-57
2023/07/07 06:36:29;;;;;;;4.03;3.10;;;;;;;;;;5053266;28;20172;-56
2023/07/07 06:38:56;;;;;;;4.80;2.57;;;;;;;;;;5052725;28;20548;-58
2023/07/07 06:41:22;;;;;;;4.30;2.43;;;;;;;;;;5051968;28;20165;-57
2023/07/07 06:43:48;;;;;;;3.33;2.80;;;;;;;;;;5052894;28;20196;-58
2023/07/07 06:46:15;;;;;;;2.67;2.43;;;;;;;;;;5052513;28;20165;-57
2023/07/07 06:48:41;;;;;;;3.50;2.63;;;;;;;;;;5052188;28;20174;-57
2023/07/07 06:51:07;;;;;;;3.50;2.83;;;;;;;;;;5052183;28;20264;-57
2023/07/07 06:53:33;;;;;;;3.90;2.80;;;;;;;;;;5051402;28;20181;-57
2023/07/07 06:55:59;;;;;;;6.93;3.20;;;;;;;;;;5052650;28;20308;-57
2023/07/07 06:58:25;;;;;;;5.30;3.20;;;;;;;;;;5050950;28;20295;-57
2023/07/07 07:00:51;;;;;;;3.00;2.70;;;;;;;;;;5052501;28;20796;-57
2023/07/07 07:03:18;;;;;;;4.07;3.47;;;;;;;;;;5051562;28;20225;-57
2023/07/07 07:05:44;;;;;;;4.80;3.43;;;;;;;;;;5051823;28;20676;-56
2023/07/07 07:08:11;;;;;;;5.53;2.60;;;;;;;;;;5052203;28;20169;-57
2023/07/07 07:10:37;;;;;;;6.03;3.03;;;;;;;;;;5052414;28;20183;-57
2023/07/07 07:13:03;;;;;;;4.20;2.90;;;;;;;;;;5063640;28;20260;-57
2023/07/07 07:15:30;;;;;;;2.57;2.37;;;;;;;;;;5073086;28;20465;-57
2023/07/07 07:17:56;;;;;;;3.40;3.00;;;;;;;;;;5071105;28;20181;-57
2023/07/07 07:20:22;;;;;;;5.40;2.90;;;;;;;;;;5072512;28;20165;-57
2023/07/07 07:22:49;;;;;;;5.80;2.80;;;;;;;;;;5072147;28;20233;-59
2023/07/07 07:25:15;;;;;;;4.17;3.00;;;;;;;;;;5072500;28;20179;-59
2023/07/07 07:27:41;;;;;;;3.23;2.90;;;;;;;;;;5071985;28;20648;-59
2023/07/07 07:30:08;;;;;;;4.77;2.40;;;;;;;;;;5071887;28;20191;-59
2023/07/07 07:32:35;;;;;;;5.83;2.90;;;;;;;;;;5070999;28;20331;-59
2023/07/07 07:35:01;;;;;;;3.53;2.37;;;;;;;;;;5071447;28;20173;-59
2023/07/07 07:37:28;;;;;;;3.63;3.13;;;;;;;;;;5071877;28;20177;-60
2023/07/07 07:39:54;;;;;;;3.90;2.70;;;;;;;;;;5071564;28;20196;-59
2023/07/07 07:42:20;;;;;;;3.10;2.80;;;;;;;;;;5071426;28;20171;-59
2023/07/07 07:44:46;;;;;;;3.10;2.63;;;;;;;;;;5071419;28;20185;-59
2023/07/07 07:47:12;;;;;;;2.40;2.20;;;;;;;;;;5071434;28;20181;-60
2023/07/07 07:49:38;;;;;;;4.60;2.40;;;;;;;;;;5070947;28;20183;-59
2023/07/07 07:52:05;;;;;;;3.07;2.53;;;;;;;;;;5071154;28;20168;-59
2023/07/07 07:54:31;;;;;;;3.13;2.60;;;;;;;;;;5071332;28;20165;-59
2023/07/07 07:56:57;;;;;;;2.97;2.30;;;;;;;;;;5071188;28;20224;-58
2023/07/07 07:59:23;;;;;;;2.83;2.20;;;;;;;;;;5071016;28;20209;-59
2023/07/07 08:01:49;;;;;;;9.70;2.73;;;;;;;;;;5070338;28;20169;-59
2023/07/07 08:04:16;;;;;;;3.03;2.33;;;;;;;;;;5065273;28;20227;-60
2023/07/07 08:06:42;;;;;;;2.43;2.10;;;;;;;;;;5051243;28;20173;-58
2023/07/07 08:09:18;;;;;;;2.10;1.90;;;;;;;;;;5051775;28;20582;-59
2023/07/07 08:11:44;;;;;;;4.10;2.20;;;;;;;;;;5051332;28;20616;-59
2023/07/07 08:14:19;;;;;;;2.37;2.03;;;;;;;;;;5051147;28;20609;-60
2023/07/07 08:16:45;;;;;;;5.30;2.40;;;;;;;;;;5050432;28;20160;-58
2023/07/07 08:19:11;;;;;;;2.40;2.20;;;;;;;;;;5050226;28;20200;-59
2023/07/07 08:21:37;;;;;;;4.33;2.70;;;;;;;;;;5050624;28;20718;-58
2023/07/07 08:24:05;;;;;;;2.30;2.10;;;;;;;;;;5050841;28;20170;-57
2023/07/07 08:26:32;;;;;;;2.30;2.10;;;;;;;;;;5050828;28;20555;-58
2023/07/07 08:28:58;;;;;;;3.13;2.27;;;;;;;;;;5050254;28;20178;-57
2023/07/07 08:31:24;;;;;;;5.67;2.40;;;;;;;;;;5048813;28;20179;-58
2023/07/07 08:33:51;;;;;;;3.37;2.23;;;;;;;;;;5049887;28;20166;-58
2023/07/07 08:36:18;;;;;;;2.70;2.35;;;;;;;;;;5049752;28;20423;-58
2023/07/07 08:38:44;;;;;;;2.40;2.20;;;;;;;;;;5050520;28;20204;-57
2023/07/07 08:41:11;;;;;;;2.40;2.20;;;;;;;;;;5050377;28;20653;-59
2023/07/07 08:43:38;;;;;;;2.70;2.50;;;;;;;;;;5050944;28;20158;-58
2023/07/07 08:46:23;;;;;;;2.97;2.13;;;;;;;;;;5050431;28;20219;-58
2023/07/07 08:48:53;;;;;;;3.53;2.23;;;;;;;;;;5049818;28;20600;-57
2023/07/07 08:51:21;;;;;;;2.20;2.00;;;;;;;;;;5050520;28;20268;-57
2023/07/07 08:54:01;;;;;;;4.13;2.47;;;;;;;;;;5050109;28;20280;-58
2023/07/07 08:56:35;;;;;;;2.20;2.00;;;;;;;;;;5050218;28;20424;-58
2023/07/07 08:59:15;;;;;;;2.33;2.13;;;;;;;;;;5050296;28;20193;-57
2023/07/07 09:01:46;;;;;;;2.37;2.17;;;;;;;;;;5050038;28;20158;-58
2023/07/07 09:04:27;;;;;;;2.57;2.37;;;;;;;;;;5054482;28;20613;-59
2023/07/07 09:06:59;;;;;;;2.77;2.37;;;;;;;;;;5070533;28;20157;-58
2023/07/07 09:09:41;;;;;;;2.80;2.27;;;;;;;;;;5070733;28;20165;-57
2023/07/07 09:12:10;;;;;;;2.60;2.40;;;;;;;;;;5070014;28;20191;-58
2023/07/07 09:14:37;;;;;;;2.60;2.40;;;;;;;;;;5072320;28;20534;-58
2023/07/07 09:17:09;;;;;;;2.87;2.40;;;;;;;;;;5073465;28;20208;-58
2023/07/07 09:19:40;;;;;;;3.37;2.10;;;;;;;;;;5055996;28;20280;-58
2023/07/07 09:22:12;;;;;;;2.63;2.43;;;;;;;;;;5074159;28;20158;-57
2023/07/07 09:24:43;;;;;;;2.53;2.33;;;;;;;;;;5073701;28;20485;-58
2023/07/07 09:27:15;;;;;;;2.40;2.20;;;;;;;;;;5073889;28;20169;-58
2023/07/07 09:29:43;;;;;;;2.60;2.00;;;;;;;;;;5074224;28;20180;-58
2023/07/07 09:32:13;;;;;;;3.53;2.33;;;;;;;;;;5073269;28;20267;-58
2023/07/07 09:34:40;;;;;;;3.67;2.37;;;;;;;;;;5073803;28;20226;-59
2023/07/07 09:37:06;;;;;;;4.23;2.47;;;;;;;;;;5073527;28;20205;-56
2023/07/07 09:39:35;;;;;;;4.23;2.80;;;;;;;;;;5073623;28;20193;-58
2023/07/07 09:42:27;;;;;;;2.90;2.50;;;;;;;;;;5073554;28;20162;-60
2023/07/07 09:45:18;;;;;;;4.23;2.77;;;;;;;;;;5042640;28;20282;-58
2023/07/07 09:47:48;;;;;;;2.67;2.47;;;;;;;;;;5073165;28;20269;-57
2023/07/07 09:50:17;;;;;;;3.83;2.67;;;;;;;;;;5055082;28;20587;-58
2023/07/07 09:52:46;;;;;;;2.60;2.40;;;;;;;;;;5073691;28;20222;-58
2023/07/07 09:55:21;;;;;;;3.67;2.50;;;;;;;;;;5073773;28;20569;-58
2023/07/07 09:57:50;;;;;;;3.00;2.60;;;;;;;;;;5073198;28;20689;-59
2023/07/07 10:00:18;;;;;;;2.60;2.40;;;;;;;;;;5073337;28;20186;-57
2023/07/07 10:02:46;;;;;;;3.20;2.90;;;;;;;;;;5072779;28;20567;-57
2023/07/07 10:05:13;;;;;;;2.80;2.60;;;;;;;;;;5059466;28;20195;-58
2023/07/07 10:07:40;;;;;;;2.97;2.63;;;;;;;;;;5053022;28;20554;-59
2023/07/07 10:10:10;;;;;;;3.10;2.80;;;;;;;;;;5053024;28;20206;-58
2023/07/07 10:12:37;;;;;;;4.53;3.50;;;;;;;;;;5053389;28;20742;-57
2023/07/07 10:15:16;;;;;;;4.13;2.87;;;;;;;;;;5053065;28;20512;-59
2023/07/07 10:18:06;;;;;;;3.27;2.47;;;;;;;;;;5052695;28;20318;-59
2023/07/07 10:20:32;;;;;;;5.63;2.60;;;;;;;;;;5043037;28;20194;-58
2023/07/07 10:22:58;;;;;;;3.00;2.63;;;;;;;;;;5052666;28;20172;-57
2023/07/07 10:25:27;;;;;;;3.50;2.90;;;;;;;;;;5051901;28;20171;-58
2023/07/07 10:27:54;;;;;;;2.90;2.70;;;;;;;;;;5053305;28;20570;-60
2023/07/07 10:30:20;;;;;;;4.43;3.00;;;;;;;;;;5053207;28;20169;-59
2023/07/07 10:32:47;;;;;;;3.03;2.73;;;;;;;;;;5052742;28;20184;-59
2023/07/07 10:35:18;;;;;;;6.70;2.80;;;;;;;;;;5052819;28;20238;-58
2023/07/07 10:37:46;;;;;;;3.10;2.90;;;;;;;;;;5051319;28;20239;-59
2023/07/07 10:40:24;;;;;;;3.57;2.67;;;;;;;;;;5052543;28;20657;-60
2023/07/07 10:42:53;;;;;;;3.23;2.80;;;;;;;;;;5052736;28;20531;-59
2023/07/07 10:45:20;;;;;;;3.30;3.00;;;;;;;;;;5052741;28;20159;-59
2023/07/07 10:47:46;;;;;;;3.43;3.13;;;;;;;;;;5051929;28;20214;-59
2023/07/07 10:50:15;;;;;;;4.07;3.20;;;;;;;;;;5052562;28;20187;-59
2023/07/07 10:52:46;;;;;;;3.23;2.93;;;;;;;;;;5052182;28;20208;-58
2023/07/07 10:55:32;;;;;;;3.40;3.10;;;;;;;;;;5052470;28;20161;-58
2023/07/07 10:57:58;;;;;;;3.03;2.83;;;;;;;;;;5012460;28;20654;-57
2023/07/07 11:00:52;;;;;;;3.77;3.47;;;;;;;;;;5012510;28;20522;-57
2023/07/07 11:03:37;;;;;;;3.80;3.17;;;;;;;;;;5011533;28;20174;-58
2023/07/07 11:06:19;;;;;;;3.38;3.08;;;;;;;;;;5012323;28;20594;-58
2023/07/07 11:09:04;;;;;;;3.55;3.25;;;;;;;;;;5012393;28;20163;-58
2023/07/07 11:11:36;;;;;;;3.60;3.10;;;;;;;;;;5012898;28;20558;-58
2023/07/07 11:14:05;;;;;;;2.80;2.60;;;;;;;;;;5012673;28;20163;-58
2023/07/07 11:16:51;;;;;;;3.20;2.72;;;;;;;;;;5010841;28;20281;-58
2023/07/07 11:19:29;;;;;;;3.47;3.17;;;;;;;;;;5012293;28;20195;-58
2023/07/07 11:22:01;;;;;;;3.42;3.03;;;;;;;;;;5012444;28;20163;-57
2023/07/07 11:24:44;;;;;;;3.10;2.90;;;;;;;;;;5012216;28;20285;-59
2023/07/07 11:27:16;;;;;;;2.97;2.55;;;;;;;;;;5012251;28;20174;-58
2023/07/07 11:29:50;;;;;;;3.00;2.80;;;;;;;;;;5012006;28;20185;-58
2023/07/07 11:32:22;;;;;;;3.47;2.80;;;;;;;;;;5011295;28;20155;-57
2023/07/07 11:34:48;;;;;;;3.35;3.15;;;;;;;;;;5011276;28;20253;-58
2023/07/07 11:37:20;;;;;;;4.63;3.10;;;;;;;;;;5011747;28;20604;-58
2023/07/07 11:40:03;;;;;;;3.10;2.83;;;;;;;;;;5011497;28;20198;-58
2023/07/07 11:42:43;;;;;;;3.85;3.55;;;;;;;;;;5010475;28;20265;-59
2023/07/07 11:45:29;;;;;;;3.10;2.90;;;;;;;;;;5010776;28;20197;-58
2023/07/07 11:48:14;;;;;;;3.10;2.80;;;;;;;;;;5010421;28;20261;-57
2023/07/07 11:50:47;;;;;;;3.67;3.30;;;;;;;;;;5011921;28;20266;-57
2023/07/07 11:53:32;;;;;;;4.25;3.30;;;;;;;;;;5012076;28;20544;-58
2023/07/07 11:56:17;;;;;;;3.10;2.80;;;;;;;;;;5019942;28;20229;-57
2023/07/07 11:58:58;;;;;;;3.28;3.08;;;;;;;;;;5033154;28;20199;-58
2023/07/07 12:01:29;;;;;;;3.33;3.08;;;;;;;;;;5051563;28;20644;-56
2023/07/07 12:03:55;;;;;;;3.72;3.22;;;;;;;;;;5049774;28;20192;-58
2023/07/07 12:06:38;;;;;;;5.45;3.72;;;;;;;;;;5051573;28;20252;-58
2023/07/07 12:09:13;;;;;;;3.80;3.50;;;;;;;;;;5050971;28;20286;-59
2023/07/07 12:11:44;;;;;;;6.78;4.03;;;;;;;;;;5049756;28;20209;-57
2023/07/07 12:14:14;;;;;;;3.67;3.38;;;;;;;;;;5051226;28;20169;-58
2023/07/07 12:16:42;;;;;;;3.53;3.33;;;;;;;;;;5051544;28;20556;-58
2023/07/07 12:19:21;;;;;;;3.90;3.45;;;;;;;;;;5050905;28;20209;-58
2023/07/07 12:21:50;;;;;;;3.45;3.25;;;;;;;;;;5051856;28;20158;-58
2023/07/07 12:24:20;;;;;;;3.47;3.17;;;;;;;;;;5051090;28;20211;-59
2023/07/07 12:26:49;;;;;;;3.35;3.05;;;;;;;;;;5050718;28;20157;-60
2023/07/07 12:29:16;;;;;;;3.80;3.08;;;;;;;;;;5051588;28;20161;-59
2023/07/07 12:31:46;;;;;;;5.95;3.42;;;;;;;;;;5051659;28;20176;-59
2023/07/07 12:34:19;;;;;;;3.78;3.47;;;;;;;;;;5051031;28;20173;-58
2023/07/07 12:36:46;;;;;;;3.55;3.17;;;;;;;;;;5050523;28;20180;-57
2023/07/07 12:39:12;;;;;;;5.57;3.03;;;;;;;;;;5051057;28;20358;-58
2023/07/07 12:41:39;;;;;;;3.13;2.92;;;;;;;;;;5051451;28;20183;-58
2023/07/07 12:44:08;;;;;;;3.95;3.08;;;;;;;;;;5051688;28;20181;-59
2023/07/07 12:46:35;;;;;;;3.40;3.10;;;;;;;;;;5050388;28;20147;-59
2023/07/07 12:49:06;;;;;;;3.80;3.42;;;;;;;;;;5051411;28;20180;-59
2023/07/07 12:51:35;;;;;;;2.92;2.72;;;;;;;;;;5055328;28;20169;-59
2023/07/07 12:54:01;;;;;;;3.33;3.05;;;;;;;;;;5054710;28;20183;-59
2023/07/07 12:56:29;;;;;;;3.33;3.03;;;;;;;;;;5054782;28;20240;-59
2023/07/07 12:58:56;;;;;;;3.88;2.83;;;;;;;;;;5054733;28;20228;-59
2023/07/07 13:01:41;;;;;;;3.70;2.80;;;;;;;;;;5052152;28;20258;-59
2023/07/07 13:04:08;;;;;;;2.95;2.75;;;;;;;;;;5053792;28;20681;-59
2023/07/07 13:06:44;;;;;;;3.13;2.83;;;;;;;;;;5054538;28;20181;-59
2023/07/07 13:09:13;;;;;;;3.20;2.90;;;;;;;;;;5054871;28;20658;-59
2023/07/07 13:11:44;;;;;;;3.50;2.90;;;;;;;;;;5074833;28;20192;-60
2023/07/07 13:14:29;;;;;;;2.88;2.55;;;;;;;;;;5075205;28;20180;-60
2023/07/07 13:16:56;;;;;;;2.83;2.63;;;;;;;;;;5074156;28;20157;-59
2023/07/07 13:19:23;;;;;;;3.95;2.85;;;;;;;;;;5074490;28;20226;-59
2023/07/07 13:21:50;;;;;;;3.17;2.88;;;;;;;;;;5056758;28;20173;-60
2023/07/07 13:24:17;;;;;;;2.75;2.55;;;;;;;;;;5074689;28;20271;-60
2023/07/07 13:26:43;;;;;;;2.90;2.70;;;;;;;;;;5074453;28;20209;-59
2023/07/07 13:29:09;;;;;;;2.85;2.65;;;;;;;;;;5073728;28;20177;-59
2023/07/07 13:31:39;;;;;;;3.03;2.72;;;;;;;;;;5073687;28;20165;-58
2023/07/07 13:34:07;;;;;;;3.20;2.90;;;;;;;;;;5073446;28;20624;-58
2023/07/07 13:36:33;;;;;;;7.13;3.22;;;;;;;;;;5073994;28;20686;-58
2023/07/07 13:39:01;;;;;;;3.15;2.95;;;;;;;;;;5073925;28;20200;-59
2023/07/07 13:41:28;;;;;;;6.43;3.47;;;;;;;;;;5074737;28;20183;-60
2023/07/07 13:43:55;;;;;;;3.00;2.80;;;;;;;;;;5075722;28;20218;-60
2023/07/07 13:46:25;;;;;;;3.95;3.60;;;;;;;;;;5074020;28;20157;-59
2023/07/07 13:48:57;;;;;;;3.47;3.17;;;;;;;;;;5054717;28;20164;-59
2023/07/07 13:51:32;;;;;;;5.78;3.33;;;;;;;;;;5073379;28;20640;-59
2023/07/07 13:53:59;;;;;;;3.17;2.88;;;;;;;;;;5073408;28;20184;-58
2023/07/07 13:56:27;;;;;;;3.35;3.05;;;;;;;;;;5073409;28;20244;-58
2023/07/07 13:58:55;;;;;;;3.33;3.05;;;;;;;;;;5073394;28;20660;-58
2023/07/07 14:01:25;;;;;;;3.88;3.50;;;;;;;;;;5073026;28;20211;-58
2023/07/07 14:03:52;;;;;;;3.17;2.97;;;;;;;;;;5070618;28;20193;-58
2023/07/07 14:06:19;;;;;;;2.65;2.45;;;;;;;;;;5053468;28;20173;-58
2023/07/07 14:08:46;;;;;;;4.45;3.58;;;;;;;;;;5053072;28;20533;-59
2023/07/07 14:11:25;;;;;;;3.17;2.97;;;;;;;;;;5053270;28;20166;-58
2023/07/07 14:13:53;;;;;;;3.50;3.20;;;;;;;;;;5053013;28;20176;-58
2023/07/07 14:16:25;;;;;;;3.05;2.78;;;;;;;;;;5052606;28;20247;-59
2023/07/07 14:18:59;;;;;;;3.17;2.92;;;;;;;;;;5052319;28;20189;-59
2023/07/07 14:21:26;;;;;;;5.25;2.90;;;;;;;;;;5052786;28;20185;-58
2023/07/07 14:23:52;;;;;;;3.42;3.05;;;;;;;;;;5053294;28;20242;-58
2023/07/07 14:26:25;;;;;;;3.38;2.92;;;;;;;;;;5052875;28;20671;-59
2023/07/07 14:28:55;;;;;;;3.55;3.22;;;;;;;;;;5052725;28;20594;-58
2023/07/07 14:31:22;;;;;;;3.33;3.05;;;;;;;;;;5050875;28;20408;-58
2023/07/07 14:33:54;;;;;;;4.43;3.05;;;;;;;;;;5051783;28;20161;-58
2023/07/07 14:36:25;;;;;;;3.38;3.08;;;;;;;;;;5052560;28;20166;-58
2023/07/07 14:38:56;;;;;;;2.88;2.67;;;;;;;;;;5052656;28;20636;-59
2023/07/07 14:41:23;;;;;;;3.28;3.00;;;;;;;;;;5052691;28;20166;-58
2023/07/07 14:43:50;;;;;;;3.40;3.13;;;;;;;;;;5052399;28;20527;-59
2023/07/07 14:46:25;;;;;;;2.70;2.50;;;;;;;;;;5051732;28;20197;-59
2023/07/07 14:48:53;;;;;;;3.22;2.90;;;;;;;;;;5051187;28;20184;-60
2023/07/07 14:51:22;;;;;;;2.97;2.78;;;;;;;;;;5052187;28;20182;-59
2023/07/07 14:54:11;;;;;;;2.80;2.60;;;;;;;;;;5051979;28;20169;-58